createdAt,value
2019-02-14T00:02:22.826Z,97881.20
2019-02-14T00:05:16.586Z,97887.29
2019-02-14T00:08:03.410Z,97887.29
2019-02-14T00:10:53.034Z,97890.94
2019-02-14T00:13:42.857Z,97884.09
2019-02-14T00:16:32.285Z,97895.92
2019-02-14T00:19:22.335Z,97885.91
2019-02-14T00:22:11.753Z,97880.06
2019-02-14T00:25:01.750Z,97878.03
2019-02-14T00:27:51.181Z,97885.69
2019-02-14T00:30:40.465Z,97881.72
2019-02-14T00:33:29.836Z,97878.45
2019-02-14T00:36:19.012Z,97880.51
2019-02-14T00:39:08.463Z,97885.34
2019-02-14T00:41:58.327Z,97888.39
2019-02-14T00:44:47.812Z,97893.81
2019-02-14T00:47:37.468Z,97891.63
2019-02-14T00:50:26.914Z,97889.30
2019-02-14T00:53:18.838Z,97899.73
2019-02-14T00:56:08.387Z,97897.21
2019-02-14T00:58:58.607Z,97894.55
2019-02-14T01:01:48.560Z,97890.91
2019-02-14T01:04:38.453Z,97884.80
2019-02-14T01:07:27.949Z,97880.45
2019-02-14T01:10:18.268Z,97882.89
2019-02-14T01:13:07.551Z,97881.45
2019-02-14T01:15:57.679Z,97883.10
2019-02-14T01:18:46.996Z,97878.03
2019-02-14T01:21:36.130Z,97873.23
2019-02-14T01:24:25.519Z,97871.95
2019-02-14T01:27:15.192Z,97873.71
2019-02-14T01:30:05.066Z,97878.89
2019-02-14T01:32:55.161Z,97871.67
2019-02-14T01:35:44.950Z,97878.49
2019-02-14T01:38:34.038Z,97874.98
2019-02-14T01:41:24.165Z,97880.42
2019-02-14T01:44:13.360Z,97871.69
2019-02-14T01:47:02.642Z,97873.89
2019-02-14T01:49:52.582Z,97873.03
2019-02-14T01:56:13.684Z,97867.48
2019-02-14T01:59:03.114Z,97865.81
2019-02-14T02:01:53.102Z,97869.70
2019-02-14T02:04:42.608Z,97862.00
2019-02-14T02:07:32.636Z,97863.24
2019-02-14T02:10:22.277Z,97859.87
2019-02-14T02:13:14.839Z,97866.61
2019-02-14T02:16:04.006Z,97860.70
2019-02-14T02:18:53.644Z,97868.30
2019-02-14T02:21:43.174Z,97875.18
2019-02-14T02:24:32.875Z,97879.67
2019-02-14T02:27:22.328Z,97877.09
2019-02-14T02:30:13.560Z,97880.06
2019-02-14T02:33:03.165Z,97875.43
2019-02-14T02:36:00.158Z,97877.52
2019-02-14T02:38:44.057Z,97871.62
2019-02-14T02:41:33.715Z,97872.59
2019-02-14T02:44:22.816Z,97876.25
2019-02-14T02:47:16.056Z,97874.15
2019-02-14T02:50:06.457Z,97875.88
2019-02-14T02:52:55.670Z,97882.19
2019-02-14T02:55:45.144Z,97882.59
2019-02-14T02:58:35.083Z,97888.80
2019-02-14T03:01:24.425Z,97886.28
2019-02-14T03:04:13.799Z,97892.45
2019-02-14T03:07:02.936Z,97896.22
2019-02-14T03:09:52.576Z,97896.11
2019-02-14T03:12:42.012Z,97896.45
2019-02-14T03:15:31.707Z,97893.61
2019-02-14T03:18:21.115Z,97892.30
2019-02-14T03:21:14.672Z,97895.72
2019-02-14T03:24:04.678Z,97895.73
2019-02-14T03:26:54.674Z,97899.63
2019-02-14T03:29:44.069Z,97900.88
2019-02-14T03:32:35.231Z,97898.23
2019-02-14T03:35:24.778Z,97894.27
2019-02-14T03:38:14.530Z,97891.91
2019-02-14T03:41:03.854Z,97887.05
2019-02-14T03:43:53.451Z,97885.26
2019-02-14T03:46:42.723Z,97893.94
2019-02-14T03:49:32.378Z,97882.59
2019-02-14T03:52:21.600Z,97881.44
2019-02-14T03:55:13.282Z,97877.88
2019-02-14T03:58:02.863Z,97880.82
2019-02-14T04:00:52.513Z,97891.05
2019-02-14T04:03:41.786Z,97896.55
2019-02-14T04:06:31.330Z,97890.31
2019-02-14T04:09:20.803Z,97887.08
2019-02-14T04:12:10.690Z,97884.36
2019-02-14T04:14:59.879Z,97888.55
2019-02-14T04:17:49.366Z,97890.68
2019-02-14T04:20:39.318Z,97890.54
2019-02-14T04:23:28.593Z,97885.48
2019-02-14T04:26:18.096Z,97864.27
2019-02-14T04:29:07.785Z,97871.16
2019-02-14T04:31:57.467Z,97870.38
2019-02-14T04:34:46.998Z,97868.45
2019-02-14T04:37:36.712Z,97880.34
2019-02-14T04:40:33.451Z,97878.45
2019-02-14T04:43:17.289Z,97883.23
2019-02-14T04:46:06.641Z,97892.95
2019-02-14T04:48:55.982Z,97888.14
2019-02-14T04:51:45.244Z,97885.53
2019-02-14T04:54:34.844Z,97884.05
2019-02-14T04:57:24.209Z,97887.06
2019-02-14T05:00:14.106Z,97888.56
2019-02-14T05:03:03.447Z,97893.32
2019-02-14T05:05:52.951Z,97894.59
2019-02-14T05:08:42.067Z,97896.33
2019-02-14T05:11:32.125Z,97903.52
2019-02-14T05:14:21.574Z,97901.58
2019-02-14T05:17:16.301Z,97907.88
2019-02-14T05:20:06.878Z,97907.53
2019-02-14T05:22:56.681Z,97911.49
2019-02-14T05:25:46.534Z,97914.44
2019-02-14T05:28:36.120Z,97915.73
2019-02-14T05:31:25.994Z,97912.03
2019-02-14T05:34:15.297Z,97914.50
2019-02-14T05:37:04.678Z,97913.33
2019-02-14T05:39:54.566Z,97908.69
2019-02-14T05:42:44.129Z,97918.02
2019-02-14T05:45:34.149Z,97910.86
2019-02-14T05:48:23.975Z,97909.14
2019-02-14T05:51:14.914Z,97921.06
2019-02-14T05:54:05.152Z,97921.95
2019-02-14T05:56:54.536Z,97926.56
2019-02-14T05:59:44.210Z,97917.74
2019-02-14T06:02:33.659Z,97920.58
2019-02-14T06:05:23.698Z,97922.09
2019-02-14T06:08:13.377Z,97925.98
2019-02-14T06:11:02.674Z,97923.42
2019-02-14T06:13:52.769Z,97922.21
2019-02-14T06:16:42.016Z,97931.62
2019-02-14T06:19:31.962Z,97939.72
2019-02-14T06:22:21.145Z,97934.32
2019-02-14T06:25:14.594Z,97932.89
2019-02-14T06:28:03.927Z,97939.86
2019-02-14T06:30:53.083Z,97947.33
2019-02-14T06:33:44.349Z,97943.48
2019-02-14T06:36:33.926Z,97947.59
2019-02-14T06:39:23.750Z,97952.65
2019-02-14T06:42:13.533Z,97955.68
2019-02-14T06:45:03.009Z,97961.16
2019-02-14T06:47:52.691Z,97968.53
2019-02-14T06:50:42.086Z,97968.53
2019-02-14T06:53:32.041Z,97968.20
2019-02-14T06:56:21.317Z,97973.03
2019-02-14T06:59:11.280Z,97979.44
2019-02-14T07:02:01.470Z,97976.91
2019-02-14T07:04:51.208Z,97969.20
2019-02-14T07:07:40.508Z,97977.62
2019-02-14T07:10:30.463Z,97981.49
2019-02-14T07:13:20.044Z,97981.97
2019-02-14T07:16:09.850Z,97983.27
2019-02-14T07:19:01.952Z,97977.67
2019-02-14T07:21:51.695Z,97973.70
2019-02-14T07:24:41.257Z,97977.56
2019-02-14T07:27:31.002Z,97975.92
2019-02-14T07:30:20.923Z,97975.48
2019-02-14T07:33:16.008Z,97964.82
2019-02-14T07:36:05.476Z,97958.58
2019-02-14T07:38:54.906Z,97965.13
2019-02-14T07:41:44.937Z,97961.14
2019-02-14T07:44:34.394Z,97963.89
2019-02-14T07:47:24.073Z,97963.14
2019-02-14T07:50:13.457Z,97957.81
2019-02-14T07:53:03.370Z,97950.84
2019-02-14T07:55:53.878Z,97939.91
2019-02-14T07:58:43.577Z,97942.31
2019-02-14T08:01:32.855Z,97940.33
2019-02-14T08:04:22.095Z,97944.42
2019-02-14T08:07:16.434Z,97943.28
2019-02-14T08:10:06.463Z,97944.09
2019-02-14T08:12:56.430Z,97940.52
2019-02-14T08:15:45.987Z,97930.19
2019-02-14T08:18:35.911Z,97936.37
2019-02-14T08:21:25.370Z,97946.90
2019-02-14T08:24:15.037Z,97945.70
2019-02-14T08:27:04.584Z,97948.24
2019-02-14T08:29:53.967Z,97947.31
2019-02-14T08:32:43.401Z,97950.63
2019-02-14T08:35:32.715Z,97952.58
2019-02-14T08:38:22.875Z,97955.84
2019-02-14T08:41:12.242Z,97951.16
2019-02-14T08:44:03.378Z,97951.37
2019-02-14T08:46:52.451Z,97951.73
2019-02-14T08:49:42.102Z,97955.11
2019-02-14T08:52:31.580Z,97958.79
2019-02-14T08:55:21.342Z,97961.72
2019-02-14T08:58:10.753Z,97968.91
2019-02-14T09:01:00.926Z,97968.91
2019-02-14T09:03:50.238Z,97973.69
2019-02-14T09:06:39.194Z,97968.64
2019-02-14T09:09:28.662Z,97963.37
2019-02-14T09:12:18.705Z,97963.09
2019-02-14T09:15:11.964Z,97959.60
2019-02-14T09:18:01.420Z,97961.48
2019-02-14T09:20:50.956Z,97956.00
2019-02-14T09:23:42.400Z,97954.90
2019-02-14T09:26:31.723Z,97963.34
2019-02-14T09:29:21.394Z,97959.31
2019-02-14T09:32:10.911Z,97955.92
2019-02-14T09:35:00.301Z,97956.12
2019-02-14T09:37:49.847Z,97955.05
2019-02-14T09:40:39.290Z,97956.78
2019-02-14T09:43:30.078Z,97951.09
2019-02-14T09:46:19.706Z,97947.88
2019-02-14T09:49:11.006Z,97944.51
2019-02-14T09:52:00.347Z,97948.88
2019-02-14T09:54:50.274Z,97949.70
2019-02-14T09:57:39.693Z,97943.31
2019-02-14T10:00:29.561Z,97946.92
2019-02-14T10:03:19.108Z,97955.83
2019-02-14T10:06:09.316Z,97956.25
2019-02-14T10:09:01.632Z,97959.24
2019-02-14T10:11:51.963Z,97952.97
2019-02-14T10:14:52.255Z,97947.66
2019-02-14T10:17:42.143Z,97955.09
2019-02-14T10:20:31.671Z,97959.86
2019-02-14T10:23:21.254Z,97965.95
2019-02-14T10:26:10.566Z,97956.84
2019-02-14T10:29:02.815Z,97953.09
2019-02-14T10:31:52.048Z,97953.59
2019-02-14T10:34:41.683Z,97951.83
2019-02-14T10:37:30.892Z,97947.52
2019-02-14T10:40:20.861Z,97950.73
2019-02-14T10:43:10.405Z,97958.13
2019-02-14T10:46:00.406Z,97957.63
2019-02-14T10:48:50.109Z,97951.84
2019-02-14T10:51:39.987Z,97950.23
2019-02-14T10:54:29.207Z,97944.00
2019-02-14T10:57:18.789Z,97948.50
2019-02-14T11:00:16.345Z,97948.23
2019-02-14T11:03:06.823Z,97939.53
2019-02-14T11:05:55.997Z,97930.15
2019-02-14T11:08:45.514Z,97931.98
2019-02-14T11:11:35.185Z,97921.55
2019-02-14T11:14:29.121Z,97913.52
2019-02-14T11:17:15.615Z,97907.81
2019-02-14T11:20:06.612Z,97909.36
2019-02-14T11:22:56.231Z,97904.89
2019-02-14T11:25:45.609Z,97904.60
2019-02-14T11:28:35.105Z,97899.08
2019-02-14T11:31:25.019Z,97899.61
2019-02-14T11:34:14.502Z,97894.69
2019-02-14T11:37:03.876Z,97891.20
2019-02-14T11:39:53.574Z,97890.37
2019-02-14T11:42:43.178Z,97896.67
2019-02-14T11:45:32.616Z,97898.97
2019-02-14T11:48:21.614Z,97897.21
2019-02-14T11:51:11.308Z,97887.50
2019-02-14T11:54:03.259Z,97893.02
2019-02-14T11:56:52.748Z,97878.05
2019-02-14T11:59:42.187Z,97871.88
2019-02-14T12:02:31.799Z,97865.59
2019-02-14T12:05:21.983Z,97864.83
2019-02-14T12:08:11.228Z,97855.14
2019-02-14T12:11:01.170Z,97859.23
2019-02-14T12:13:50.799Z,97865.82
2019-02-14T12:16:40.463Z,97867.58
2019-02-14T12:19:29.903Z,97865.08
2019-02-14T12:22:19.856Z,97867.84
2019-02-14T12:28:46.057Z,97861.38
2019-02-14T12:31:35.198Z,97868.33
2019-02-14T12:34:24.454Z,97867.19
2019-02-14T12:37:16.065Z,97867.44
2019-02-14T12:40:06.637Z,97863.52
2019-02-14T12:42:56.372Z,97855.45
2019-02-14T12:45:46.132Z,97848.73
2019-02-14T12:48:35.266Z,97848.37
2019-02-14T12:51:24.889Z,97855.06
2019-02-14T12:54:14.356Z,97850.39
2019-02-14T12:57:03.965Z,97853.02
2019-02-14T12:59:53.184Z,97864.50
2019-02-14T13:02:43.373Z,97868.98
2019-02-14T13:05:33.658Z,97860.95
2019-02-14T13:08:22.983Z,97852.58
2019-02-14T13:11:12.471Z,97846.17
2019-02-14T13:14:04.713Z,97848.73
2019-02-14T13:16:54.131Z,97851.66
2019-02-14T13:19:43.317Z,97846.53
2019-02-14T13:22:32.537Z,97844.66
2019-02-14T13:25:21.777Z,97843.72
2019-02-14T13:28:11.463Z,97839.60
2019-02-14T13:31:00.734Z,97835.51
2019-02-14T13:33:50.741Z,97813.13
2019-02-14T13:36:40.212Z,97798.48
2019-02-14T13:39:32.382Z,97776.13
2019-02-14T13:42:21.038Z,97765.00
2019-02-14T13:45:12.767Z,97744.48
2019-02-14T13:48:02.228Z,97733.12
2019-02-14T13:50:51.965Z,97722.83
2019-02-14T13:53:41.494Z,97725.16
2019-02-14T13:56:30.728Z,97720.18
2019-02-14T13:59:20.256Z,97721.17
2019-02-14T14:02:09.651Z,97728.66
2019-02-14T14:04:59.333Z,97725.38
2019-02-14T14:07:48.954Z,97732.13
2019-02-14T14:10:38.951Z,97742.85
2019-02-14T14:13:28.435Z,97763.20
2019-02-14T14:16:18.046Z,97774.87
2019-02-14T14:19:07.950Z,97770.76
2019-02-14T14:21:57.094Z,97778.95
2019-02-14T14:24:46.635Z,97784.90
2019-02-14T14:27:36.141Z,97800.84
2019-02-14T14:30:25.735Z,97789.70
2019-02-14T14:33:15.413Z,97779.80
2019-02-14T14:36:04.622Z,97779.86
2019-02-14T14:38:54.302Z,97782.63
2019-02-14T14:41:43.856Z,97788.20
2019-02-14T14:44:58.996Z,97785.75
2019-02-14T14:47:48.485Z,97793.13
2019-02-14T14:50:37.939Z,97790.52
2019-02-14T14:53:27.084Z,97783.53
2019-02-14T14:56:16.679Z,97790.94
2019-02-14T14:59:06.089Z,97794.50
2019-02-14T15:01:56.224Z,97783.33
2019-02-14T15:04:45.475Z,97795.54
2019-02-14T15:07:35.841Z,97800.94
2019-02-14T15:10:25.076Z,97796.63
2019-02-14T15:13:15.039Z,97793.43
2019-02-14T15:16:04.235Z,97791.42
2019-02-14T15:18:54.447Z,97785.55
2019-02-14T15:21:43.795Z,97781.34
2019-02-14T15:24:33.228Z,97777.02
2019-02-14T15:27:22.460Z,97780.53
2019-02-14T15:30:12.440Z,97784.52
2019-02-14T15:33:02.063Z,97778.86
2019-02-14T15:35:51.994Z,97783.50
2019-02-14T15:38:41.417Z,97774.26
2019-02-14T15:41:30.999Z,97779.66
2019-02-14T15:44:20.184Z,97781.48
2019-02-14T15:47:10.496Z,97778.95
2019-02-14T15:50:00.004Z,97773.84
2019-02-14T15:52:52.219Z,97777.06
2019-02-14T15:55:43.590Z,97778.19
2019-02-14T15:58:33.108Z,97787.38
2019-02-14T16:01:22.570Z,97786.41
2019-02-14T16:04:12.013Z,97787.58
2019-02-14T16:07:02.213Z,97795.42
2019-02-14T16:09:52.164Z,97800.66
2019-02-14T16:12:43.555Z,97815.48
2019-02-14T16:15:33.806Z,97810.16
2019-02-14T16:18:23.571Z,97814.63
2019-02-14T16:21:20.357Z,97811.37
2019-02-14T16:24:09.742Z,97807.03
2019-02-14T16:27:01.171Z,97809.59
2019-02-14T16:29:50.949Z,97811.94
2019-02-14T16:32:41.198Z,97804.16
2019-02-14T16:35:30.447Z,97809.81
2019-02-14T16:38:20.720Z,97813.71
2019-02-14T16:41:10.552Z,97809.27
2019-02-14T16:44:02.142Z,97802.08
2019-02-14T16:46:51.615Z,97798.08
2019-02-14T16:49:41.352Z,97794.86
2019-02-14T16:52:30.490Z,97797.84
2019-02-14T16:55:20.345Z,97806.06
2019-02-14T16:58:10.225Z,97808.06
2019-02-14T17:00:59.865Z,97807.58
2019-02-14T17:03:49.426Z,97804.33
2019-02-14T17:06:39.725Z,97800.31
2019-02-14T17:09:28.942Z,97807.81
2019-02-14T17:12:18.413Z,97818.02
2019-02-14T17:15:08.969Z,97814.09
2019-02-14T17:17:58.169Z,97817.48
2019-02-14T17:20:47.613Z,97810.63
2019-02-14T17:23:37.396Z,97812.73
2019-02-14T17:26:27.429Z,97817.75
2019-02-14T17:29:17.064Z,97817.02
2019-02-14T17:32:06.249Z,97818.81
2019-02-14T17:34:55.897Z,97825.27
2019-02-14T17:37:45.058Z,97821.94
2019-02-14T17:40:34.402Z,97824.25
2019-02-14T17:43:24.323Z,97823.29
2019-02-14T17:46:14.206Z,97813.98
2019-02-14T17:49:03.891Z,97813.39
2019-02-14T17:51:53.146Z,97804.66
2019-02-14T17:54:42.753Z,97798.09
2019-02-14T17:57:31.957Z,97801.16
2019-02-14T18:00:21.336Z,97807.45
2019-02-14T18:03:11.962Z,97805.61
2019-02-14T18:06:01.468Z,97794.20
2019-02-14T18:08:50.652Z,97799.38
2019-02-14T18:11:40.501Z,97798.63
2019-02-14T18:14:29.728Z,97800.17
2019-02-14T18:17:19.413Z,97797.64
2019-02-14T18:20:10.052Z,97795.20
2019-02-14T18:22:59.583Z,97794.45
2019-02-14T18:25:48.845Z,97791.01
2019-02-14T18:28:38.031Z,97788.58
2019-02-14T18:31:28.011Z,97793.66
2019-02-14T18:34:17.580Z,97789.31
2019-02-14T18:37:07.352Z,97789.00
2019-02-14T18:39:56.860Z,97790.27
2019-02-14T18:42:46.757Z,97785.56
2019-02-14T18:45:36.213Z,97777.86
2019-02-14T18:48:26.099Z,97779.59
2019-02-14T18:51:15.561Z,97783.59
2019-02-14T18:54:04.922Z,97783.27
2019-02-14T18:56:54.143Z,97778.80
2019-02-14T18:59:43.945Z,97773.44
2019-02-14T19:02:33.382Z,97781.23
2019-02-14T19:05:23.555Z,97794.95
2019-02-14T19:08:13.139Z,97793.98
2019-02-14T19:11:03.467Z,97791.29
2019-02-14T19:13:54.311Z,97794.20
2019-02-14T19:16:44.495Z,97790.06
2019-02-14T19:19:34.122Z,97791.13
2019-02-14T19:22:23.530Z,97792.65
2019-02-14T19:25:14.429Z,97793.58
2019-02-14T19:28:03.847Z,97794.22
2019-02-14T19:30:53.492Z,97790.15
2019-02-14T19:33:43.077Z,97787.22
2019-02-14T19:36:32.633Z,97776.20
2019-02-14T19:39:22.597Z,97693.66
2019-02-14T19:42:12.176Z,97774.17
2019-02-14T19:45:02.026Z,97780.13
2019-02-14T19:47:52.287Z,97781.81
2019-02-14T19:50:41.649Z,97781.63
2019-02-14T19:53:31.109Z,97778.86
2019-02-14T19:56:20.740Z,97779.83
2019-02-14T19:59:09.961Z,97773.02
2019-02-14T20:01:59.320Z,97778.98
2019-02-14T20:04:49.071Z,97773.61
2019-02-14T20:07:38.892Z,97771.52
2019-02-14T20:10:28.051Z,97772.86
2019-02-14T20:13:17.867Z,97772.44
2019-02-14T20:16:07.059Z,97771.32
2019-02-14T20:18:57.095Z,97761.08
2019-02-14T20:28:34.689Z,97771.62
2019-02-14T20:31:24.660Z,97786.87
2019-02-14T20:34:14.090Z,97797.64
2019-02-14T20:37:03.804Z,97792.69
2019-02-14T20:39:53.236Z,97794.10
2019-02-14T20:43:20.292Z,97792.84
2019-02-14T20:46:10.258Z,97794.88
2019-02-14T20:49:00.420Z,97790.30
2019-02-14T20:51:49.564Z,97798.25
2019-02-14T20:54:39.121Z,97802.55
2019-02-14T20:57:28.297Z,97797.05
2019-02-14T21:00:32.929Z,97801.31
2019-02-14T21:03:22.210Z,97805.71
2019-02-14T21:06:11.549Z,97794.25
2019-02-14T21:09:05.036Z,97789.67
2019-02-14T21:11:55.133Z,97787.25
2019-02-14T21:14:45.089Z,97787.67
2019-02-14T21:17:34.496Z,97784.76
2019-02-14T21:20:23.749Z,97788.38
2019-02-14T21:23:16.153Z,97792.84
2019-02-14T21:26:05.893Z,97793.55
2019-02-14T21:28:55.283Z,97777.02
2019-02-14T21:31:45.514Z,97798.84
2019-02-14T21:34:34.783Z,97798.70
2019-02-14T21:37:24.546Z,97795.65
2019-02-14T21:40:14.104Z,97791.69
2019-02-14T21:43:03.841Z,97794.25
2019-02-14T21:45:53.789Z,97793.27
2019-02-14T21:48:43.126Z,97794.50
2019-02-14T21:51:33.004Z,97798.30
2019-02-14T21:54:22.804Z,97802.90
2019-02-14T21:57:13.767Z,97811.27
2019-02-14T22:00:03.785Z,97812.67
2019-02-14T22:02:53.172Z,97807.58
2019-02-14T22:05:42.608Z,97813.31
2019-02-14T22:08:32.015Z,97814.50
2019-02-14T22:11:22.104Z,97812.87
2019-02-14T22:14:11.488Z,97815.86
2019-02-14T22:17:01.153Z,97807.00
2019-02-14T22:19:50.331Z,97809.57
2019-02-14T22:22:39.760Z,97814.24
2019-02-14T22:25:29.330Z,97809.50
2019-02-14T22:28:18.890Z,97819.14
2019-02-14T22:31:08.603Z,97819.14
2019-02-14T22:33:58.203Z,97820.83
2019-02-14T22:36:47.591Z,97828.14
2019-02-14T22:39:37.189Z,97826.38
2019-02-14T22:42:26.721Z,97819.20
2019-02-14T22:45:16.932Z,97822.61
2019-02-14T22:48:06.651Z,97812.77
2019-02-14T22:51:23.032Z,97815.89
2019-02-14T22:54:12.706Z,97815.58
2019-02-14T22:57:02.037Z,97820.63
2019-02-14T22:59:51.225Z,97822.56
2019-02-14T23:02:42.848Z,97821.24
2019-02-14T23:05:32.817Z,97821.30
2019-02-14T23:08:22.364Z,97823.70
2019-02-14T23:11:12.293Z,97820.30
2019-02-14T23:14:01.924Z,97812.63
2019-02-14T23:16:51.223Z,97809.08
2019-02-14T23:19:41.195Z,97815.00
2019-02-14T23:22:30.764Z,97807.00
2019-02-14T23:25:20.142Z,97810.80
2019-02-14T23:28:09.913Z,97812.50
2019-02-14T23:30:59.315Z,97811.64
2019-02-14T23:33:48.902Z,97805.24
2019-02-14T23:36:38.587Z,97811.30
2019-02-14T23:39:27.774Z,97811.80
2019-02-14T23:42:17.248Z,97816.80
2019-02-14T23:45:07.783Z,97819.54
2019-02-14T23:47:57.008Z,97813.87
2019-02-14T23:50:46.894Z,97812.94
2019-02-14T23:53:36.396Z,97805.53
2019-02-14T23:56:26.301Z,97813.37
2019-02-14T23:59:15.517Z,97813.66
